Aviation Digital Data Service (ADDS)

Output produced by TAFs form (1251 UTC 27 August 2014)
found at http://www.aviationweather.gov/adds/tafs/
 
KGFL 271128Z 2712/2812 20005KT P6SM FEW120 BKN250 
     FM271500 19006KT P6SM BKN050 
     FM271700 20008KT P6SM VCSH OVC050 
     FM272100 28006KT P6SM SCT050 BKN200 
     FM280100 31004KT P6SM BKN200 
     FM280600 00000KT 3/4SM BR SCT002 SCT250